Time;durP1;ratioP1;P1;durP2;ratioP2;P2;SDS_P1;SDS_P2;PMS_P1;PMS_P2;Temp;Humidity;BMP_temperature;BMP_pressure;BME280_temperature;BME280_humidity;BME280_pressure;Samples;Min_cycle;Max_cycle;Signal;HPM_P1;HPM_P2
2022/07/02 00:00:22;;;;;;;22.25;14.63;;;21.30;66.80;;;;;;5070193;28;20478;-45
2022/07/02 00:02:50;;;;;;;21.95;13.65;;;21.30;67.40;;;;;;5072682;28;20107;-44
2022/07/02 00:05:17;;;;;;;28.10;14.10;;;21.30;68.80;;;;;;5073685;28;20033;-46
2022/07/02 00:07:43;;;;;;;27.27;12.93;;;21.30;70.40;;;;;;5073131;28;20028;-48
2022/07/02 00:10:09;;;;;;;19.83;11.05;;;21.30;71.00;;;;;;5072540;28;20495;-46
2022/07/02 00:12:35;;;;;;;15.02;9.20;;;21.30;71.00;;;;;;5070350;28;20112;-45
2022/07/02 00:15:02;;;;;;;13.23;8.40;;;21.30;68.90;;;;;;5075708;28;20040;-45
2022/07/02 00:17:28;;;;;;;14.55;8.05;;;21.30;68.60;;;;;;5071245;28;20028;-48
2022/07/02 00:19:54;;;;;;;16.08;8.43;;;21.30;69.30;;;;;;5073878;28;20048;-45
2022/07/02 00:22:20;;;;;;;12.98;7.65;;;21.30;70.00;;;;;;5074648;28;20040;-46
2022/07/02 00:24:46;;;;;;;16.42;7.70;;;21.30;69.50;;;;;;5067975;28;20025;-46
2022/07/02 00:27:14;;;;;;;11.32;6.93;;;21.30;69.40;;;;;;5084991;28;20050;-48
2022/07/02 00:29:47;;;;;;;11.02;6.47;;;21.30;68.30;;;;;;5083975;28;20036;-51
2022/07/02 00:32:13;;;;;;;10.32;5.88;;;21.30;69.00;;;;;;5080227;28;20024;-45
2022/07/02 00:34:39;;;;;;;8.85;5.15;;;21.30;68.00;;;;;;5081094;28;20050;-48
2022/07/02 00:37:09;;;;;;;7.82;4.70;;;21.30;68.10;;;;;;5065635;28;20020;-51
2022/07/02 00:39:36;;;;;;;7.32;4.25;;;21.30;68.80;;;;;;5083298;28;20020;-44
2022/07/02 00:42:06;;;;;;;77.55;11.32;;;21.30;68.30;;;;;;5081043;28;20032;-49
2022/07/02 00:44:32;;;;;;;15.50;5.45;;;21.30;67.30;;;;;;5085221;28;20059;-49
2022/07/02 00:47:04;;;;;;;13.75;4.55;;;21.30;65.90;;;;;;5081956;28;20143;-46
2022/07/02 00:49:35;;;;;;;10.20;4.80;;;21.40;65.00;;;;;;5083092;28;20025;-46
2022/07/02 00:52:01;;;;;;;9.75;3.90;;;21.40;64.80;;;;;;5081622;28;20060;-47
2022/07/02 00:54:28;;;;;;;6.72;3.90;;;21.40;64.40;;;;;;5081379;28;20066;-49
2022/07/02 00:56:54;;;;;;;6.63;4.20;;;21.30;64.50;;;;;;5082839;28;20062;-47
2022/07/02 00:59:22;;;;;;;7.17;4.00;;;21.40;64.40;;;;;;5077028;28;20058;-46
2022/07/02 01:01:48;;;;;;;4.55;3.10;;;21.30;65.30;;;;;;5083479;28;20028;-46
2022/07/02 01:04:14;;;;;;;4.45;3.00;;;21.30;64.50;;;;;;5082294;28;20028;-47
2022/07/02 01:06:41;;;;;;;4.57;3.10;;;21.30;64.20;;;;;;5082512;28;20028;-46
2022/07/02 01:12:00;;;;;;;19.70;11.50;;;21.30;63.60;;;;;;5083206;28;20032;-48
2022/07/02 01:14:27;;;;;;;22.98;14.57;;;21.30;63.40;;;;;;5082905;28;20114;-48
2022/07/02 01:16:53;;;;;;;21.17;13.30;;;21.30;63.30;;;;;;5085068;28;20105;-49
2022/07/02 01:19:20;;;;;;;20.40;12.67;;;21.30;63.60;;;;;;5083061;28;20024;-45
2022/07/02 01:22:18;;;;;;;20.55;12.77;;;21.30;63.30;;;;;;5082421;28;20265;-46
2022/07/02 01:24:45;;;;;;;21.15;12.38;;;21.20;62.90;;;;;;5081141;28;20848;-49
2022/07/02 01:27:12;;;;;;;19.00;11.63;;;21.20;63.30;;;;;;5082484;28;20031;-49
2022/07/02 01:29:38;;;;;;;17.23;10.07;;;21.20;63.90;;;;;;5082711;28;20044;-46
2022/07/02 01:32:05;;;;;;;16.58;10.65;;;21.20;64.10;;;;;;5080642;28;20024;-47
2022/07/02 01:34:37;;;;;;;15.55;9.38;;;21.20;64.10;;;;;;5084739;28;20046;-47
2022/07/02 01:37:05;;;;;;;12.18;8.30;;;21.20;64.10;;;;;;5081832;28;20065;-50
2022/07/02 01:39:31;;;;;;;12.27;7.57;;;21.10;63.80;;;;;;5079798;28;20043;-45
2022/07/02 01:41:57;;;;;;;11.00;7.30;;;21.10;64.10;;;;;;5075998;28;20036;-46
2022/07/02 01:44:24;;;;;;;9.52;6.72;;;21.10;63.80;;;;;;5092340;28;20052;-46
2022/07/02 01:46:50;;;;;;;6.75;4.30;;;21.10;63.30;;;;;;5080431;28;20024;-48
2022/07/02 01:49:17;;;;;;;9.65;6.20;;;21.10;63.70;;;;;;5081356;28;20066;-47
2022/07/02 01:51:43;;;;;;;9.00;6.30;;;21.10;63.20;;;;;;5082986;28;20028;-45
2022/07/02 01:54:09;;;;;;;10.30;5.57;;;21.10;64.10;;;;;;5081850;28;20056;-49
2022/07/02 01:56:35;;;;;;;7.22;5.60;;;21.00;64.80;;;;;;5079204;28;20017;-47
2022/07/02 01:59:01;;;;;;;8.55;5.45;;;21.00;65.20;;;;;;5081049;28;20502;-45
2022/07/02 02:01:28;;;;;;;8.18;5.60;;;21.00;65.70;;;;;;5082029;28;20029;-46
2022/07/02 02:03:54;;;;;;;7.30;5.10;;;21.00;65.70;;;;;;5079003;28;20115;-47
2022/07/02 02:06:46;;;;;;;8.27;4.80;;;21.00;65.70;;;;;;5082262;28;20024;-47
2022/07/02 02:09:25;;;;;;;6.43;4.18;;;21.00;65.90;;;;;;5081757;28;20048;-45
2022/07/02 02:11:51;;;;;;;6.77;4.07;;;21.00;65.70;;;;;;5088831;28;20020;-48
2022/07/02 02:14:18;;;;;;;6.43;3.65;;;21.00;65.40;;;;;;5087734;28;20036;-48
2022/07/02 02:16:44;;;;;;;5.50;3.70;;;20.90;65.90;;;;;;5083026;28;20451;-47
2022/07/02 02:19:10;;;;;;;5.25;3.70;;;20.90;66.10;;;;;;5078300;28;20044;-45
2022/07/02 02:21:36;;;;;;;6.30;3.47;;;20.90;66.10;;;;;;5081257;28;20119;-47
2022/07/02 02:24:03;;;;;;;5.18;3.30;;;20.90;66.30;;;;;;5081621;28;20028;-52
2022/07/02 02:26:29;;;;;;;7.88;3.42;;;20.90;66.40;;;;;;5087111;28;20024;-54
2022/07/02 02:28:55;;;;;;;7.10;3.13;;;20.90;67.00;;;;;;5082307;28;20070;-53
2022/07/02 02:31:22;;;;;;;7.55;3.10;;;20.90;66.80;;;;;;5082524;28;20039;-51
2022/07/02 02:33:48;;;;;;;8.87;3.23;;;20.90;67.10;;;;;;5076672;28;20040;-48
2022/07/02 02:36:14;;;;;;;5.15;3.05;;;20.90;67.00;;;;;;5072493;28;20063;-49
2022/07/02 02:38:40;;;;;;;10.82;3.22;;;20.90;67.30;;;;;;5081052;28;20043;-50
2022/07/02 02:41:07;;;;;;;7.03;2.92;;;20.90;66.30;;;;;;5081137;28;20037;-48
2022/07/02 02:43:34;;;;;;;5.10;3.25;;;20.90;66.80;;;;;;5079354;28;20052;-47
2022/07/02 02:46:00;;;;;;;5.35;2.90;;;20.90;66.50;;;;;;5076147;28;20092;-46
2022/07/02 02:48:27;;;;;;;6.03;2.60;;;21.00;66.40;;;;;;5078580;28;20048;-48
2022/07/02 02:50:53;;;;;;;5.63;2.88;;;21.00;66.30;;;;;;5078690;28;20054;-52
2022/07/02 02:53:19;;;;;;;4.40;2.45;;;20.90;66.70;;;;;;5080043;28;20040;-51
2022/07/02 02:55:46;;;;;;;4.55;2.22;;;21.00;67.20;;;;;;5077512;28;20028;-48
2022/07/02 02:58:12;;;;;;;3.80;2.40;;;21.00;67.30;;;;;;5079707;28;20067;-49
2022/07/02 03:00:38;;;;;;;3.53;2.15;;;21.00;67.10;;;;;;5080512;28;20088;-48
2022/07/02 03:03:04;;;;;;;4.47;2.22;;;21.00;67.00;;;;;;5080364;28;20032;-51
2022/07/02 03:05:30;;;;;;;3.13;2.00;;;21.00;66.90;;;;;;5077716;28;20029;-49
2022/07/02 03:07:56;;;;;;;4.32;2.05;;;21.00;66.50;;;;;;5079632;28;20036;-50
2022/07/02 03:10:22;;;;;;;4.32;1.85;;;21.00;66.30;;;;;;5080563;28;20033;-52
2022/07/02 03:12:48;;;;;;;2.33;1.92;;;21.00;66.50;;;;;;5104331;28;20036;-52
2022/07/02 03:15:15;;;;;;;4.38;1.92;;;21.00;66.80;;;;;;5079413;28;20040;-48
2022/07/02 03:17:41;;;;;;;2.67;1.70;;;21.00;66.80;;;;;;5081859;28;20028;-48
2022/07/02 03:20:07;;;;;;;4.90;1.90;;;21.00;66.70;;;;;;5080676;28;20031;-48
2022/07/02 03:22:34;;;;;;;3.53;1.95;;;21.00;66.60;;;;;;5083631;28;20110;-48
2022/07/02 03:25:00;;;;;;;2.10;1.70;;;21.00;66.60;;;;;;5083733;28;20084;-50
2022/07/02 03:27:26;;;;;;;2.30;1.60;;;21.00;66.60;;;;;;5083340;28;20481;-49
2022/07/02 03:29:52;;;;;;;2.73;1.80;;;21.10;66.70;;;;;;5084142;28;20840;-47
2022/07/02 03:32:19;;;;;;;3.65;1.60;;;21.10;66.70;;;;;;5085650;28;20032;-50
2022/07/02 03:34:45;;;;;;;1.90;1.60;;;21.10;66.90;;;;;;5081906;28;20056;-48
2022/07/02 03:37:11;;;;;;;3.17;1.80;;;21.10;66.90;;;;;;5084804;28;20120;-49
2022/07/02 03:39:37;;;;;;;3.03;1.52;;;21.10;66.90;;;;;;5080120;28;20035;-50
2022/07/02 03:42:03;;;;;;;1.95;1.60;;;21.10;66.90;;;;;;5085284;28;20032;-49
2022/07/02 03:44:29;;;;;;;4.07;1.63;;;21.10;66.90;;;;;;5085328;28;20029;-52
2022/07/02 03:46:56;;;;;;;2.38;1.80;;;21.10;67.00;;;;;;5084115;28;20028;-48
2022/07/02 03:49:22;;;;;;;2.35;1.52;;;21.10;67.00;;;;;;5084064;28;20031;-50
2022/07/02 03:51:48;;;;;;;2.08;1.42;;;21.10;67.00;;;;;;5084299;28;20028;-53
2022/07/02 03:54:14;;;;;;;2.00;1.40;;;21.10;67.00;;;;;;5083745;28;20041;-48
2022/07/02 03:56:40;;;;;;;2.20;1.40;;;21.20;67.00;;;;;;5083370;28;20028;-47
2022/07/02 03:59:07;;;;;;;1.95;1.52;;;21.20;67.00;;;;;;5085365;28;20809;-47
2022/07/02 04:01:33;;;;;;;3.58;1.50;;;21.20;67.00;;;;;;5083930;28;20031;-48
2022/07/02 04:03:59;;;;;;;1.83;1.30;;;21.20;67.00;;;;;;5083610;28;20024;-48
2022/07/02 04:06:25;;;;;;;1.90;1.45;;;21.20;67.00;;;;;;5081200;28;20021;-46
2022/07/02 04:08:51;;;;;;;1.88;1.20;;;21.20;67.00;;;;;;5084724;28;20025;-51
2022/07/02 04:11:17;;;;;;;1.63;1.45;;;21.30;67.00;;;;;;5083918;28;20032;-46
2022/07/02 04:13:43;;;;;;;1.50;1.15;;;21.30;67.00;;;;;;5082738;28;20032;-45
2022/07/02 04:16:09;;;;;;;1.90;1.50;;;21.30;67.10;;;;;;5081533;28;21258;-43
2022/07/02 04:18:35;;;;;;;2.72;1.50;;;21.30;67.10;;;;;;5084155;28;20043;-45
2022/07/02 04:21:02;;;;;;;1.83;1.58;;;21.30;67.00;;;;;;5084358;28;20036;-47
2022/07/02 04:23:28;;;;;;;1.45;1.33;;;21.30;67.00;;;;;;5083519;28;20035;-45
2022/07/02 04:25:54;;;;;;;2.00;1.20;;;21.30;67.00;;;;;;5083188;28;20020;-50
2022/07/02 04:28:20;;;;;;;2.17;1.52;;;21.40;67.10;;;;;;5072777;28;20045;-48
2022/07/02 04:30:46;;;;;;;2.58;1.35;;;21.40;67.00;;;;;;5075987;28;20060;-50
2022/07/02 04:33:12;;;;;;;1.92;1.20;;;21.40;67.00;;;;;;5072788;28;20037;-48
2022/07/02 04:35:39;;;;;;;1.63;1.15;;;21.40;67.00;;;;;;5072314;28;20036;-47
2022/07/02 04:38:05;;;;;;;3.72;1.50;;;21.40;67.00;;;;;;5074509;28;20044;-49
2022/07/02 04:40:31;;;;;;;1.77;1.30;;;21.40;67.00;;;;;;5070499;28;20036;-48
2022/07/02 04:42:57;;;;;;;1.52;1.30;;;21.50;67.00;;;;;;5071234;28;20143;-48
2022/07/02 04:45:23;;;;;;;1.38;1.20;;;21.50;67.00;;;;;;5072005;28;20059;-48
2022/07/02 04:47:49;;;;;;;2.40;1.30;;;21.50;66.90;;;;;;5071659;28;20036;-48
2022/07/02 04:50:15;;;;;;;2.83;1.27;;;21.50;66.90;;;;;;5073173;28;20086;-47
2022/07/02 04:52:42;;;;;;;1.70;1.30;;;21.50;66.90;;;;;;5070979;28;20029;-49
2022/07/02 04:55:08;;;;;;;1.30;1.10;;;21.50;66.90;;;;;;5070478;28;20123;-48
2022/07/02 04:57:34;;;;;;;2.80;1.55;;;21.60;66.90;;;;;;5081599;28;20032;-45
2022/07/02 05:00:20;;;;;;;1.50;1.30;;;21.60;66.90;;;;;;4981200;28;20630;-45
2022/07/02 05:02:46;;;;;;;1.50;1.20;;;21.60;66.80;;;;;;4980890;28;20043;-46
2022/07/02 05:05:12;;;;;;;1.77;1.13;;;21.60;66.80;;;;;;4979370;28;20913;-44
2022/07/02 05:07:38;;;;;;;2.25;1.60;;;21.60;66.70;;;;;;4978400;28;20050;-48
2022/07/02 05:10:05;;;;;;;1.95;1.42;;;21.60;66.70;;;;;;4976130;28;20046;-46
2022/07/02 05:12:31;;;;;;;1.40;1.10;;;21.60;66.60;;;;;;4979160;28;20046;-48
2022/07/02 05:14:57;;;;;;;1.63;1.20;;;21.70;66.70;;;;;;4978915;28;20297;-46
2022/07/02 05:17:24;;;;;;;2.00;1.30;;;21.60;66.60;;;;;;4979564;28;20066;-46
2022/07/02 05:19:50;;;;;;;1.53;1.20;;;21.70;66.60;;;;;;4981689;28;20062;-47
2022/07/02 05:22:16;;;;;;;1.70;1.20;;;21.70;66.60;;;;;;4982330;28;20039;-47
2022/07/02 05:24:42;;;;;;;1.55;1.02;;;21.70;66.60;;;;;;4981654;28;20043;-49
2022/07/02 05:27:08;;;;;;;2.85;1.30;;;21.70;66.60;;;;;;4979827;28;20041;-47
2022/07/02 05:29:34;;;;;;;1.50;1.05;;;21.70;66.50;;;;;;4979937;28;20046;-46
2022/07/02 05:32:00;;;;;;;1.50;1.00;;;21.70;66.50;;;;;;4980894;28;20077;-47
2022/07/02 05:34:26;;;;;;;1.23;1.00;;;21.70;66.50;;;;;;4979878;28;20106;-47
2022/07/02 05:36:53;;;;;;;1.45;1.00;;;21.80;66.50;;;;;;5006721;28;20032;-48
2022/07/02 05:39:19;;;;;;;1.43;1.07;;;21.80;66.50;;;;;;5082183;28;20142;-46
2022/07/02 05:41:45;;;;;;;1.60;1.10;;;21.80;66.50;;;;;;5081954;28;20092;-45
2022/07/02 05:44:11;;;;;;;1.80;1.35;;;21.80;66.50;;;;;;5081988;28;20048;-47
2022/07/02 05:46:38;;;;;;;1.70;1.20;;;21.80;66.50;;;;;;5079919;28;20029;-48
2022/07/02 05:49:04;;;;;;;1.75;1.20;;;21.80;66.50;;;;;;5082833;28;20083;-46
2022/07/02 05:51:30;;;;;;;1.17;0.93;;;21.90;67.30;;;;;;5081007;28;20074;-44
2022/07/02 05:53:56;;;;;;;3.22;1.08;;;21.90;66.60;;;;;;5081246;28;20055;-46
2022/07/02 05:56:22;;;;;;;1.13;1.02;;;21.90;66.60;;;;;;5078607;28;20025;-48
2022/07/02 05:58:48;;;;;;;1.50;1.10;;;21.90;66.60;;;;;;5081217;28;20316;-46
2022/07/02 06:01:15;;;;;;;1.42;1.00;;;21.90;66.60;;;;;;5080227;28;20039;-48
2022/07/02 06:03:41;;;;;;;1.35;1.02;;;21.90;66.60;;;;;;5078782;28;20123;-48
2022/07/02 06:08:52;;;;;;;1.73;1.05;;;21.90;66.60;;;;;;5081151;28;20035;-50
2022/07/02 06:11:18;;;;;;;1.20;1.02;;;21.90;66.60;;;;;;5082139;28;20099;-51
2022/07/02 06:13:44;;;;;;;1.10;0.80;;;21.90;66.60;;;;;;5081525;28;20067;-50
2022/07/02 06:16:10;;;;;;;2.00;1.05;;;22.00;66.60;;;;;;5081531;28;20025;-48
2022/07/02 06:18:36;;;;;;;1.90;1.10;;;22.00;66.70;;;;;;5081924;28;20560;-46
2022/07/02 06:21:02;;;;;;;1.20;1.08;;;22.00;66.60;;;;;;5080787;28;20028;-47
2022/07/02 06:23:28;;;;;;;1.55;1.13;;;22.00;66.60;;;;;;5087175;28;20025;-49
2022/07/02 06:25:55;;;;;;;1.58;0.93;;;22.00;66.60;;;;;;5082670;28;20040;-50
2022/07/02 06:28:21;;;;;;;1.52;1.00;;;22.00;66.60;;;;;;5079129;28;20032;-45
2022/07/02 06:30:47;;;;;;;1.20;0.90;;;22.00;66.60;;;;;;5082002;28;20504;-49
2022/07/02 06:33:13;;;;;;;2.03;1.17;;;22.00;66.60;;;;;;5079961;28;20033;-51
2022/07/02 06:35:40;;;;;;;1.08;0.98;;;22.00;66.60;;;;;;5081730;28;20036;-50
2022/07/02 06:38:07;;;;;;;1.27;1.00;;;22.00;66.50;;;;;;5076435;28;20078;-48
2022/07/02 06:40:33;;;;;;;1.55;1.20;;;22.00;66.50;;;;;;5086199;28;20131;-49
2022/07/02 06:42:59;;;;;;;0.97;0.90;;;22.00;66.50;;;;;;5081249;28;20060;-47
2022/07/02 06:45:25;;;;;;;2.22;0.93;;;22.00;66.40;;;;;;5081052;28;20458;-49
2022/07/02 06:47:51;;;;;;;1.85;1.10;;;22.10;66.50;;;;;;5079881;28;20105;-46
2022/07/02 06:50:18;;;;;;;1.23;1.10;;;22.10;66.50;;;;;;5082284;28;20036;-47
2022/07/02 06:52:45;;;;;;;;;;;22.10;66.40;;;;;;5080796;28;20060;-45
2022/07/02 06:55:12;;;;;;;3.38;1.17;;;22.10;66.20;;;;;;5081514;28;19905;-47
2022/07/02 06:57:38;;;;;;;1.37;1.03;;;22.10;66.40;;;;;;5076962;28;20028;-48
2022/07/02 07:00:05;;;;;;;1.40;0.82;;;22.10;66.40;;;;;;5081949;28;20315;-48
2022/07/02 07:02:32;;;;;;;1.23;0.88;;;22.10;66.40;;;;;;5081288;28;20036;-45
2022/07/02 07:04:58;;;;;;;1.83;1.00;;;22.10;66.30;;;;;;5079396;28;20028;-46
2022/07/02 07:07:27;;;;;;;1.13;0.90;;;22.10;66.30;;;;;;5073102;28;20028;-49
2022/07/02 07:09:54;;;;;;;1.42;1.10;;;22.10;66.30;;;;;;5078470;28;20025;-47
2022/07/02 07:12:20;;;;;;;1.85;1.02;;;22.10;66.30;;;;;;5082023;28;20084;-45
2022/07/02 07:14:46;;;;;;;2.45;0.70;;;22.10;66.20;;;;;;5081862;28;20047;-48
2022/07/02 07:17:12;;;;;;;0.80;0.77;;;22.10;66.20;;;;;;5080777;28;20680;-48
2022/07/02 07:19:39;;;;;;;1.10;0.80;;;22.10;66.10;;;;;;5078706;28;20059;-47
2022/07/02 07:22:05;;;;;;;1.17;1.05;;;22.10;66.10;;;;;;5080253;28;20044;-47
2022/07/02 07:24:31;;;;;;;1.92;0.90;;;22.10;66.10;;;;;;5081446;28;20060;-48
2022/07/02 07:26:59;;;;;;;1.25;1.00;;;22.10;66.10;;;;;;5080070;28;20056;-48
2022/07/02 07:29:26;;;;;;;1.48;0.88;;;22.10;66.00;;;;;;5081510;28;20032;-49
2022/07/02 07:31:52;;;;;;;1.45;1.00;;;22.10;66.00;;;;;;5082455;28;20031;-50
2022/07/02 07:34:18;;;;;;;1.65;1.10;;;22.10;66.00;;;;;;5079921;28;20040;-46
2022/07/02 07:36:44;;;;;;;1.00;0.80;;;22.20;66.00;;;;;;5079627;28;20036;-48
2022/07/02 07:39:10;;;;;;;0.90;0.90;;;22.10;65.90;;;;;;5080514;28;20025;-48
2022/07/02 07:41:36;;;;;;;2.38;1.00;;;22.20;66.10;;;;;;5081200;28;20025;-47
2022/07/02 07:44:03;;;;;;;1.45;1.20;;;22.20;66.10;;;;;;5081597;28;20055;-49
2022/07/02 07:46:29;;;;;;;1.00;0.77;;;22.20;66.10;;;;;;5080355;28;20052;-47
2022/07/02 07:48:58;;;;;;;1.40;0.90;;;22.20;66.10;;;;;;5079425;28;20028;-50
2022/07/02 07:51:24;;;;;;;1.88;1.10;;;22.20;66.10;;;;;;5081543;28;20035;-48
2022/07/02 07:53:50;;;;;;;1.13;0.82;;;22.20;66.10;;;;;;5080156;28;20114;-51
2022/07/02 07:56:19;;;;;;;1.52;0.93;;;22.20;66.10;;;;;;5078056;28;20030;-49
2022/07/02 07:58:45;;;;;;;2.25;1.13;;;22.20;66.10;;;;;;5076906;28;20029;-47
2022/07/02 08:01:12;;;;;;;2.33;1.20;;;22.20;66.10;;;;;;5081051;28;20025;-48
2022/07/02 08:03:38;;;;;;;0.93;0.80;;;22.20;66.10;;;;;;5076312;28;20034;-47
2022/07/02 08:06:04;;;;;;;1.35;1.00;;;22.20;66.10;;;;;;5081569;28;20029;-47
2022/07/02 08:08:30;;;;;;;1.13;0.80;;;22.20;66.10;;;;;;5071247;28;20036;-47
2022/07/02 08:10:56;;;;;;;1.52;1.00;;;22.20;66.10;;;;;;5084422;28;20025;-47
2022/07/02 08:13:22;;;;;;;1.38;1.10;;;22.20;66.10;;;;;;5082997;28;20048;-46
2022/07/02 08:15:48;;;;;;;0.82;0.80;;;22.20;66.10;;;;;;5084563;28;20078;-46
2022/07/02 08:18:14;;;;;;;1.88;1.00;;;22.20;66.00;;;;;;5083652;28;20021;-48
2022/07/02 08:20:41;;;;;;;1.05;0.90;;;22.20;66.10;;;;;;5084935;28;20033;-45
2022/07/02 08:23:07;;;;;;;0.95;0.70;;;22.20;66.00;;;;;;5076963;28;20044;-47
2022/07/02 08:25:33;;;;;;;1.10;1.00;;;22.20;66.00;;;;;;5072922;28;20056;-46
2022/07/02 08:27:59;;;;;;;1.00;0.82;;;22.20;66.00;;;;;;5069974;28;20032;-47
2022/07/02 08:30:25;;;;;;;2.03;1.27;;;22.20;66.00;;;;;;5077347;28;20041;-46
2022/07/02 08:32:51;;;;;;;1.25;0.85;;;22.30;66.10;;;;;;5073458;28;20870;-46
2022/07/02 08:35:18;;;;;;;1.23;0.80;;;22.20;66.00;;;;;;5072550;28;20033;-48
2022/07/02 08:37:44;;;;;;;1.55;1.00;;;22.20;66.10;;;;;;5071711;28;20021;-47
2022/07/02 08:40:11;;;;;;;1.48;0.93;;;22.30;66.00;;;;;;5074015;28;20070;-46
2022/07/02 08:42:40;;;;;;;1.25;1.00;;;22.20;66.00;;;;;;5069703;28;20065;-46
2022/07/02 08:45:07;;;;;;;0.90;0.80;;;22.30;66.00;;;;;;5050758;28;20068;-45
2022/07/02 08:47:33;;;;;;;1.30;0.80;;;22.20;66.00;;;;;;5069557;28;20115;-46
2022/07/02 08:49:59;;;;;;;1.40;1.00;;;22.20;65.90;;;;;;5072269;28;20028;-47
2022/07/02 08:52:26;;;;;;;1.08;0.85;;;22.20;65.90;;;;;;5073811;28;20036;-46
2022/07/02 08:54:53;;;;;;;0.88;0.65;;;22.20;65.90;;;;;;5088342;28;20075;-48
2022/07/02 08:57:20;;;;;;;2.13;0.98;;;22.20;65.90;;;;;;5099333;28;20016;-47
2022/07/02 08:59:46;;;;;;;1.43;0.83;;;22.20;65.80;;;;;;5091479;28;20037;-46
2022/07/02 09:02:15;;;;;;;0.82;0.80;;;22.20;65.80;;;;;;5064258;28;20052;-48
2022/07/02 09:04:45;;;;;;;1.67;0.93;;;22.30;65.80;;;;;;5067329;28;20044;-49
2022/07/02 09:07:13;;;;;;;1.00;0.80;;;22.30;65.80;;;;;;5079477;28;20025;-47
2022/07/02 09:09:41;;;;;;;0.80;0.80;;;22.20;65.80;;;;;;5083603;28;20114;-48
2022/07/02 09:12:12;;;;;;;1.60;0.80;;;22.20;65.80;;;;;;5081845;28;20051;-47
2022/07/02 09:14:38;;;;;;;1.17;0.68;;;22.30;65.80;;;;;;5086572;28;20067;-49
2022/07/02 09:17:06;;;;;;;1.10;0.70;;;22.30;65.80;;;;;;5082566;28;20024;-48
2022/07/02 09:19:33;;;;;;;1.33;1.00;;;22.30;65.80;;;;;;5080922;28;20059;-46
2022/07/02 09:21:59;;;;;;;1.10;1.00;;;22.30;65.80;;;;;;5080246;28;20029;-48
2022/07/02 09:24:39;;;;;;;1.08;0.80;;;22.30;65.80;;;;;;5083077;28;20039;-47
2022/07/02 09:27:07;;;;;;;1.38;1.00;;;22.30;65.90;;;;;;5070948;28;20032;-46
2022/07/02 09:29:52;;;;;;;0.90;0.70;;;22.20;65.80;;;;;;5071169;28;20105;-48
2022/07/02 09:32:19;;;;;;;0.85;0.70;;;22.30;65.80;;;;;;5068716;28;20037;-45
2022/07/02 09:34:54;;;;;;;0.70;0.70;;;22.30;65.80;;;;;;5074735;28;20036;-47
2022/07/02 09:37:24;;;;;;;0.73;0.73;;;22.30;65.80;;;;;;5073292;28;20103;-47
2022/07/02 09:39:51;;;;;;;1.45;0.70;;;22.30;65.90;;;;;;5069685;28;20040;-46
2022/07/02 09:42:23;;;;;;;;;;;22.30;65.80;;;;;;5072473;28;20041;-47
2022/07/02 09:44:49;;;;;;;1.02;0.80;;;22.30;65.70;;;;;;5071967;28;19912;-45
2022/07/02 09:47:15;;;;;;;0.82;0.80;;;22.30;65.80;;;;;;5072694;28;20034;-46
2022/07/02 09:49:48;;;;;;;1.15;0.68;;;22.30;65.90;;;;;;5073636;28;20080;-46
2022/07/02 09:52:15;;;;;;;0.60;0.60;;;22.30;65.80;;;;;;5072838;28;20054;-47
2022/07/02 09:54:42;;;;;;;;;;;22.30;65.80;;;;;;5070644;28;20043;-46
2022/07/02 09:57:09;;;;;;;1.00;0.90;;;22.30;65.70;;;;;;5085990;28;20285;-48
2022/07/02 09:59:36;;;;;;;1.77;0.88;;;22.30;65.90;;;;;;5086130;28;20579;-49
2022/07/02 10:02:02;;;;;;;1.10;0.80;;;22.20;65.80;;;;;;5079961;28;20032;-46
2022/07/02 10:04:30;;;;;;;1.00;0.90;;;22.30;65.90;;;;;;5077171;28;20091;-49
2022/07/02 10:06:57;;;;;;;1.00;0.85;;;22.30;65.90;;;;;;5077122;28;20360;-46
2022/07/02 10:09:23;;;;;;;0.80;0.63;;;22.30;65.90;;;;;;5073067;28;20070;-47
2022/07/02 10:11:50;;;;;;;1.00;0.80;;;22.30;65.90;;;;;;5075480;28;20028;-47
2022/07/02 10:14:16;;;;;;;1.65;1.10;;;22.30;66.00;;;;;;5082390;28;20530;-46
2022/07/02 10:16:42;;;;;;;1.40;1.00;;;22.30;66.10;;;;;;5078299;28;20029;-51
2022/07/02 10:19:08;;;;;;;1.67;1.10;;;22.30;66.20;;;;;;5080539;28;20292;-48
2022/07/02 10:21:34;;;;;;;1.65;0.95;;;22.30;66.20;;;;;;5088753;28;20036;-48
2022/07/02 10:24:00;;;;;;;1.17;0.80;;;22.30;66.30;;;;;;5082349;28;20040;-44
2022/07/02 10:26:27;;;;;;;1.83;1.00;;;22.30;66.30;;;;;;5063669;28;20040;-46
2022/07/02 10:28:54;;;;;;;1.95;0.90;;;22.30;66.30;;;;;;5063813;28;20040;-46
2022/07/02 10:31:20;;;;;;;1.80;0.90;;;22.30;66.40;;;;;;5070323;28;20024;-46
2022/07/02 10:34:05;;;;;;;1.20;0.90;;;22.30;66.40;;;;;;5079522;28;20044;-47
2022/07/02 10:36:31;;;;;;;1.27;1.00;;;22.30;67.10;;;;;;5076157;28;20032;-46
2022/07/02 10:38:59;;;;;;;1.50;0.90;;;22.30;66.40;;;;;;5070746;28;20040;-45
2022/07/02 10:41:31;;;;;;;1.50;0.90;;;22.30;66.40;;;;;;5080366;28;20036;-48
2022/07/02 10:43:57;;;;;;;1.08;0.85;;;22.30;65.90;;;;;;5076107;28;20059;-50
2022/07/02 10:46:25;;;;;;;0.75;0.70;;;22.30;65.00;;;;;;5081537;28;20032;-47
2022/07/02 10:48:53;;;;;;;0.80;0.80;;;22.30;64.60;;;;;;5081871;28;20021;-45
2022/07/02 10:51:29;;;;;;;1.30;0.93;;;22.30;65.00;;;;;;5078519;28;20063;-46
2022/07/02 10:53:59;;;;;;;1.00;0.90;;;22.30;65.20;;;;;;5078154;28;20055;-46
2022/07/02 10:56:29;;;;;;;0.88;0.80;;;22.30;65.30;;;;;;5087616;28;20115;-46
2022/07/02 10:58:56;;;;;;;1.15;1.00;;;22.30;65.40;;;;;;5077792;28;20058;-46
2022/07/02 11:01:23;;;;;;;1.20;1.00;;;22.30;65.40;;;;;;5078046;28;20028;-48
2022/07/02 11:03:55;;;;;;;;;;;22.30;65.50;;;;;;5080848;28;20040;-47
2022/07/02 11:06:23;;;;;;;1.27;0.90;;;22.30;65.30;;;;;;5077299;28;19917;-46
2022/07/02 11:08:51;;;;;;;0.90;0.80;;;22.20;65.60;;;;;;5074126;28;20720;-46
2022/07/02 11:11:26;;;;;;;0.70;0.70;;;22.20;66.40;;;;;;5071008;28;20025;-46
2022/07/02 11:13:59;;;;;;;1.50;0.90;;;22.20;65.70;;;;;;5077811;28;20069;-48
2022/07/02 11:16:34;;;;;;;2.72;0.80;;;22.20;65.80;;;;;;5078878;28;20643;-51
2022/07/02 11:19:00;;;;;;;1.23;0.80;;;22.20;65.90;;;;;;5076650;28;20040;-49
2022/07/02 11:21:27;;;;;;;1.23;1.08;;;22.20;66.00;;;;;;5081736;28;20044;-48
2022/07/02 11:23:53;;;;;;;1.17;0.90;;;22.20;66.10;;;;;;5066893;28;20028;-50
2022/07/02 11:26:26;;;;;;;1.63;0.90;;;22.30;66.10;;;;;;5061168;28;20066;-48
2022/07/02 11:28:53;;;;;;;0.90;0.77;;;22.20;66.10;;;;;;5062565;28;20036;-50
2022/07/02 11:31:21;;;;;;;1.10;1.00;;;22.30;66.20;;;;;;5060895;28;20049;-45
2022/07/02 11:33:54;;;;;;;1.17;0.90;;;22.30;66.30;;;;;;5061376;28;20048;-47
2022/07/02 11:36:21;;;;;;;1.38;0.80;;;22.30;66.40;;;;;;5063019;28;20127;-51
2022/07/02 11:38:49;;;;;;;1.38;0.75;;;22.30;66.40;;;;;;5061828;28;20056;-46
2022/07/02 11:41:29;;;;;;;1.38;1.08;;;22.30;66.30;;;;;;5062016;28;20147;-48
2022/07/02 11:43:58;;;;;;;1.40;1.02;;;22.30;66.40;;;;;;5063232;28;20068;-49
2022/07/02 11:46:28;;;;;;;1.17;0.90;;;22.30;66.50;;;;;;5067176;28;21749;-45
2022/07/02 11:48:56;;;;;;;1.75;0.90;;;22.30;66.50;;;;;;5063894;28;20078;-49
2022/07/02 11:51:22;;;;;;;1.83;1.00;;;22.30;66.50;;;;;;5066224;28;20366;-47
2022/07/02 11:53:56;;;;;;;1.00;0.85;;;22.30;66.50;;;;;;5078400;28;20123;-46
2022/07/02 11:56:22;;;;;;;1.00;0.90;;;22.30;66.60;;;;;;5084319;28;20042;-49
2022/07/02 11:58:49;;;;;;;1.93;0.90;;;22.30;66.60;;;;;;5084200;28;20066;-48
2022/07/02 12:01:29;;;;;;;1.30;0.93;;;22.30;66.60;;;;;;5080996;28;20554;-46
2022/07/02 12:04:02;;;;;;;1.88;1.10;;;22.30;66.60;;;;;;5082739;28;20038;-49
2022/07/02 12:06:36;;;;;;;1.35;1.10;;;22.30;66.90;;;;;;5102133;28;20029;-44
2022/07/02 12:09:06;;;;;;;1.35;1.00;;;22.30;66.50;;;;;;5080184;28;20038;-43
2022/07/02 12:11:35;;;;;;;1.50;1.10;;;22.30;66.20;;;;;;5085189;28;20036;-43
2022/07/02 12:14:01;;;;;;;1.52;1.00;;;22.30;66.30;;;;;;5083893;28;20052;-54
2022/07/02 12:16:27;;;;;;;1.48;1.10;;;22.30;66.20;;;;;;5084325;28;20095;-43
2022/07/02 12:19:06;;;;;;;1.57;1.00;;;22.30;66.30;;;;;;5083626;28;20028;-45
2022/07/02 12:21:36;;;;;;;1.70;1.20;;;22.30;66.40;;;;;;5087969;28;20024;-48
2022/07/02 12:24:07;;;;;;;4.80;1.17;;;22.30;66.60;;;;;;5080961;28;20028;-49
2022/07/02 12:26:33;;;;;;;5.25;1.00;;;22.30;66.60;;;;;;5079036;28;20029;-46
2022/07/02 12:31:53;;;;;;;3.47;1.00;;;22.30;66.80;;;;;;5082138;28;20062;-44
2022/07/02 12:34:21;;;;;;;1.30;1.00;;;22.30;66.50;;;;;;5076662;28;20037;-50
2022/07/02 12:36:57;;;;;;;2.30;1.58;;;22.30;65.90;;;;;;5078573;28;20038;-43
2022/07/02 12:39:38;;;;;;;5.18;1.38;;;22.30;65.30;;;;;;5077130;28;20126;-41
2022/07/02 12:42:14;;;;;;;1.25;1.00;;;22.30;65.70;;;;;;5075461;28;20037;-41
2022/07/02 12:44:59;;;;;;;2.83;1.25;;;22.30;66.00;;;;;;5072978;28;20040;-45
2022/07/02 12:47:29;;;;;;;1.23;1.00;;;22.30;66.20;;;;;;5072167;28;20048;-45
2022/07/02 12:50:00;;;;;;;1.60;1.20;;;22.40;66.40;;;;;;5068229;28;20075;-47
2022/07/02 12:52:27;;;;;;;2.28;1.40;;;22.30;66.50;;;;;;5064384;28;20474;-44
2022/07/02 12:54:53;;;;;;;1.20;1.10;;;22.30;66.50;;;;;;5062797;28;20421;-46